sensor_id;sensor_type;location;lat;lon;timestamp;temperature;humidity
9193;DHT22;4631;49.296;10.560;2023-05-23T00:02:11;18.40;99.90
9193;DHT22;4631;49.296;10.560;2023-05-23T00:04:39;18.40;99.90
9193;DHT22;4631;49.296;10.560;2023-05-23T00:07:07;18.40;99.90
9193;DHT22;4631;49.296;10.560;2023-05-23T00:09:33;18.40;99.90
9193;DHT22;4631;49.296;10.560;2023-05-23T00:12:00;18.40;99.90
9193;DHT22;4631;49.296;10.560;2023-05-23T00:14:27;18.40;99.90
9193;DHT22;4631;49.296;10.560;2023-05-23T00:16:58;18.30;99.90
9193;DHT22;4631;49.296;10.560;2023-05-23T00:19:26;18.20;99.90
9193;DHT22;4631;49.296;10.560;2023-05-23T00:21:53;18.20;99.90
9193;DHT22;4631;49.296;10.560;2023-05-23T00:24:22;18.10;99.90
9193;DHT22;4631;49.296;10.560;2023-05-23T00:26:49;18.10;99.90
9193;DHT22;4631;49.296;10.560;2023-05-23T00:29:16;18.10;99.90
9193;DHT22;4631;49.296;10.560;2023-05-23T00:31:44;18.10;99.90
9193;DHT22;4631;49.296;10.560;2023-05-23T00:34:11;18.10;99.90
9193;DHT22;4631;49.296;10.560;2023-05-23T00:36:39;18.10;99.90
9193;DHT22;4631;49.296;10.560;2023-05-23T00:39:06;18.00;99.90
9193;DHT22;4631;49.296;10.560;2023-05-23T00:41:32;18.00;99.90
9193;DHT22;4631;49.296;10.560;2023-05-23T00:44:00;18.00;99.90
9193;DHT22;4631;49.296;10.560;2023-05-23T00:46:27;18.00;99.90
9193;DHT22;4631;49.296;10.560;2023-05-23T00:48:54;17.90;99.90
9193;DHT22;4631;49.296;10.560;2023-05-23T00:51:21;17.90;99.90
9193;DHT22;4631;49.296;10.560;2023-05-23T00:53:49;17.80;99.90
9193;DHT22;4631;49.296;10.560;2023-05-23T00:56:16;17.70;99.90
9193;DHT22;4631;49.296;10.560;2023-05-23T00:58:42;17.70;99.90
9193;DHT22;4631;49.296;10.560;2023-05-23T01:01:09;17.60;99.90
9193;DHT22;4631;49.296;10.560;2023-05-23T01:03:36;17.50;99.90
9193;DHT22;4631;49.296;10.560;2023-05-23T01:06:02;17.50;99.90
9193;DHT22;4631;49.296;10.560;2023-05-23T01:08:29;17.50;99.90
9193;DHT22;4631;49.296;10.560;2023-05-23T01:10:58;17.40;99.90
9193;DHT22;4631;49.296;10.560;2023-05-23T01:13:27;17.40;99.90
9193;DHT22;4631;49.296;10.560;2023-05-23T01:15:56;17.40;99.90
9193;DHT22;4631;49.296;10.560;2023-05-23T01:18:26;17.40;99.90
9193;DHT22;4631;49.296;10.560;2023-05-23T01:20:55;17.40;99.90
9193;DHT22;4631;49.296;10.560;2023-05-23T01:23:27;17.40;99.90
9193;DHT22;4631;49.296;10.560;2023-05-23T01:26:07;17.40;99.90
9193;DHT22;4631;49.296;10.560;2023-05-23T01:28:42;17.30;99.90
9193;DHT22;4631;49.296;10.560;2023-05-23T01:31:11;17.20;99.90
9193;DHT22;4631;49.296;10.560;2023-05-23T01:33:39;17.10;99.90
9193;DHT22;4631;49.296;10.560;2023-05-23T01:36:06;17.10;99.90
9193;DHT22;4631;49.296;10.560;2023-05-23T01:38:33;17.00;99.90
9193;DHT22;4631;49.296;10.560;2023-05-23T01:40:59;16.90;99.90
9193;DHT22;4631;49.296;10.560;2023-05-23T01:43:26;16.90;99.90
9193;DHT22;4631;49.296;10.560;2023-05-23T01:45:54;16.90;99.90
9193;DHT22;4631;49.296;10.560;2023-05-23T01:48:22;16.90;99.90
9193;DHT22;4631;49.296;10.560;2023-05-23T01:50:49;16.90;99.90
9193;DHT22;4631;49.296;10.560;2023-05-23T01:53:17;16.90;99.90
9193;DHT22;4631;49.296;10.560;2023-05-23T01:55:44;16.80;99.90
9193;DHT22;4631;49.296;10.560;2023-05-23T01:58:11;16.80;99.90
9193;DHT22;4631;49.296;10.560;2023-05-23T02:00:38;16.80;99.90
9193;DHT22;4631;49.296;10.560;2023-05-23T02:03:06;16.80;99.90
9193;DHT22;4631;49.296;10.560;2023-05-23T02:05:33;16.70;99.90
9193;DHT22;4631;49.296;10.560;2023-05-23T02:07:59;16.60;99.90
9193;DHT22;4631;49.296;10.560;2023-05-23T02:10:26;16.50;99.90
9193;DHT22;4631;49.296;10.560;2023-05-23T02:12:53;16.40;99.90
9193;DHT22;4631;49.296;10.560;2023-05-23T02:15:20;16.50;99.90
9193;DHT22;4631;49.296;10.560;2023-05-23T02:17:46;16.40;99.90
9193;DHT22;4631;49.296;10.560;2023-05-23T02:20:15;16.40;99.90
9193;DHT22;4631;49.296;10.560;2023-05-23T02:22:43;16.40;99.90
9193;DHT22;4631;49.296;10.560;2023-05-23T02:25:09;16.40;99.90
9193;DHT22;4631;49.296;10.560;2023-05-23T02:27:36;16.40;99.90
9193;DHT22;4631;49.296;10.560;2023-05-23T02:30:03;16.30;99.90
9193;DHT22;4631;49.296;10.560;2023-05-23T02:32:30;16.30;99.90
9193;DHT22;4631;49.296;10.560;2023-05-23T02:34:56;16.30;99.90
9193;DHT22;4631;49.296;10.560;2023-05-23T02:37:25;16.30;99.90
9193;DHT22;4631;49.296;10.560;2023-05-23T02:39:51;16.30;99.90
9193;DHT22;4631;49.296;10.560;2023-05-23T02:42:18;16.20;99.90
9193;DHT22;4631;49.296;10.560;2023-05-23T02:44:45;16.20;99.90
9193;DHT22;4631;49.296;10.560;2023-05-23T02:47:11;16.20;99.90
9193;DHT22;4631;49.296;10.560;2023-05-23T02:49:38;16.20;99.90
9193;DHT22;4631;49.296;10.560;2023-05-23T02:52:05;16.10;99.90
9193;DHT22;4631;49.296;10.560;2023-05-23T02:54:33;16.10;99.90
9193;DHT22;4631;49.296;10.560;2023-05-23T02:56:59;16.10;99.90
9193;DHT22;4631;49.296;10.560;2023-05-23T02:59:26;16.00;99.90
9193;DHT22;4631;49.296;10.560;2023-05-23T03:01:53;16.10;99.90
9193;DHT22;4631;49.296;10.560;2023-05-23T03:04:19;16.10;99.90
9193;DHT22;4631;49.296;10.560;2023-05-23T03:06:46;16.10;99.90
9193;DHT22;4631;49.296;10.560;2023-05-23T03:09:13;16.10;99.90
9193;DHT22;4631;49.296;10.560;2023-05-23T03:11:42;16.00;99.90
9193;DHT22;4631;49.296;10.560;2023-05-23T03:14:08;16.00;99.90
9193;DHT22;4631;49.296;10.560;2023-05-23T03:16:35;16.00;99.90
9193;DHT22;4631;49.296;10.560;2023-05-23T03:19:02;16.00;99.90
9193;DHT22;4631;49.296;10.560;2023-05-23T03:21:28;16.00;99.90
9193;DHT22;4631;49.296;10.560;2023-05-23T03:23:55;16.00;99.90
9193;DHT22;4631;49.296;10.560;2023-05-23T03:26:22;16.00;99.90
9193;DHT22;4631;49.296;10.560;2023-05-23T03:28:50;16.00;99.90
9193;DHT22;4631;49.296;10.560;2023-05-23T03:31:17;16.00;99.90
9193;DHT22;4631;49.296;10.560;2023-05-23T03:33:43;16.00;99.90
9193;DHT22;4631;49.296;10.560;2023-05-23T03:36:10;16.00;99.90
9193;DHT22;4631;49.296;10.560;2023-05-23T03:38:37;16.00;99.90
9193;DHT22;4631;49.296;10.560;2023-05-23T03:41:03;16.00;99.90
9193;DHT22;4631;49.296;10.560;2023-05-23T03:43:30;16.00;99.90
9193;DHT22;4631;49.296;10.560;2023-05-23T03:45:58;16.00;99.90
9193;DHT22;4631;49.296;10.560;2023-05-23T03:48:25;16.00;99.90
9193;DHT22;4631;49.296;10.560;2023-05-23T03:50:51;16.00;99.90
9193;DHT22;4631;49.296;10.560;2023-05-23T03:53:20;16.00;99.90
9193;DHT22;4631;49.296;10.560;2023-05-23T03:55:47;16.00;99.90
9193;DHT22;4631;49.296;10.560;2023-05-23T03:58:13;16.00;99.90
9193;DHT22;4631;49.296;10.560;2023-05-23T04:00:40;16.00;99.90
9193;DHT22;4631;49.296;10.560;2023-05-23T04:03:08;16.00;99.90
9193;DHT22;4631;49.296;10.560;2023-05-23T04:05:35;16.00;99.90
9193;DHT22;4631;49.296;10.560;2023-05-23T04:08:02;16.00;99.90
9193;DHT22;4631;49.296;10.560;2023-05-23T04:10:29;16.00;99.90
9193;DHT22;4631;49.296;10.560;2023-05-23T04:12:55;16.00;99.90
9193;DHT22;4631;49.296;10.560;2023-05-23T04:15:23;15.90;99.90
9193;DHT22;4631;49.296;10.560;2023-05-23T04:17:50;16.00;99.90
9193;DHT22;4631;49.296;10.560;2023-05-23T04:20:18;15.90;99.90
9193;DHT22;4631;49.296;10.560;2023-05-23T04:22:44;15.90;99.90
9193;DHT22;4631;49.296;10.560;2023-05-23T04:25:11;16.00;99.90
9193;DHT22;4631;49.296;10.560;2023-05-23T04:27:38;16.00;99.90
9193;DHT22;4631;49.296;10.560;2023-05-23T04:30:05;16.00;99.90
9193;DHT22;4631;49.296;10.560;2023-05-23T04:32:33;16.00;99.90
9193;DHT22;4631;49.296;10.560;2023-05-23T04:35:00;16.00;99.90
9193;DHT22;4631;49.296;10.560;2023-05-23T04:37:29;16.00;99.90
9193;DHT22;4631;49.296;10.560;2023-05-23T04:39:57;16.00;99.90
9193;DHT22;4631;49.296;10.560;2023-05-23T04:42:24;16.00;99.90
9193;DHT22;4631;49.296;10.560;2023-05-23T04:44:50;16.00;99.90
9193;DHT22;4631;49.296;10.560;2023-05-23T04:47:17;16.00;99.90
9193;DHT22;4631;49.296;10.560;2023-05-23T04:49:44;16.10;99.90
9193;DHT22;4631;49.296;10.560;2023-05-23T04:52:12;16.10;99.90
9193;DHT22;4631;49.296;10.560;2023-05-23T04:54:40;16.10;99.90
9193;DHT22;4631;49.296;10.560;2023-05-23T04:57:09;16.10;99.90
9193;DHT22;4631;49.296;10.560;2023-05-23T04:59:36;16.10;99.90
9193;DHT22;4631;49.296;10.560;2023-05-23T05:02:03;16.10;99.90
9193;DHT22;4631;49.296;10.560;2023-05-23T05:04:30;16.20;99.90
9193;DHT22;4631;49.296;10.560;2023-05-23T05:06:57;16.20;99.90
9193;DHT22;4631;49.296;10.560;2023-05-23T05:09:23;16.20;99.90
9193;DHT22;4631;49.296;10.560;2023-05-23T05:11:51;16.30;99.90
9193;DHT22;4631;49.296;10.560;2023-05-23T05:14:18;16.30;99.90
9193;DHT22;4631;49.296;10.560;2023-05-23T05:16:44;16.30;99.90
9193;DHT22;4631;49.296;10.560;2023-05-23T05:19:11;16.40;99.90
9193;DHT22;4631;49.296;10.560;2023-05-23T05:21:37;16.40;99.90
9193;DHT22;4631;49.296;10.560;2023-05-23T05:24:04;16.40;99.90
9193;DHT22;4631;49.296;10.560;2023-05-23T05:26:33;16.40;99.90
9193;DHT22;4631;49.296;10.560;2023-05-23T05:29:02;16.30;99.90
9193;DHT22;4631;49.296;10.560;2023-05-23T05:31:28;16.30;99.90
9193;DHT22;4631;49.296;10.560;2023-05-23T05:33:55;16.30;99.90
9193;DHT22;4631;49.296;10.560;2023-05-23T05:36:22;16.40;99.90
9193;DHT22;4631;49.296;10.560;2023-05-23T05:38:48;16.40;99.90
9193;DHT22;4631;49.296;10.560;2023-05-23T05:41:15;16.40;99.90
9193;DHT22;4631;49.296;10.560;2023-05-23T05:43:42;16.40;99.90
9193;DHT22;4631;49.296;10.560;2023-05-23T05:46:10;16.50;99.90
9193;DHT22;4631;49.296;10.560;2023-05-23T05:48:37;16.50;99.90
9193;DHT22;4631;49.296;10.560;2023-05-23T05:51:04;16.50;99.90
9193;DHT22;4631;49.296;10.560;2023-05-23T05:53:30;16.60;99.90
9193;DHT22;4631;49.296;10.560;2023-05-23T05:55:57;16.70;99.90
9193;DHT22;4631;49.296;10.560;2023-05-23T05:58:23;16.70;99.90
9193;DHT22;4631;49.296;10.560;2023-05-23T06:00:50;16.80;99.90
9193;DHT22;4631;49.296;10.560;2023-05-23T06:03:19;16.80;99.90
9193;DHT22;4631;49.296;10.560;2023-05-23T06:05:46;16.80;99.90
9193;DHT22;4631;49.296;10.560;2023-05-23T06:08:12;16.90;99.90
9193;DHT22;4631;49.296;10.560;2023-05-23T06:10:39;16.90;99.90
9193;DHT22;4631;49.296;10.560;2023-05-23T06:13:05;16.90;99.90
9193;DHT22;4631;49.296;10.560;2023-05-23T06:15:32;17.00;99.90
9193;DHT22;4631;49.296;10.560;2023-05-23T06:18:01;17.00;99.90
9193;DHT22;4631;49.296;10.560;2023-05-23T06:20:29;17.10;99.90
9193;DHT22;4631;49.296;10.560;2023-05-23T06:22:56;17.20;99.90
9193;DHT22;4631;49.296;10.560;2023-05-23T06:25:24;17.20;99.90
9193;DHT22;4631;49.296;10.560;2023-05-23T06:27:50;17.30;99.90
9193;DHT22;4631;49.296;10.560;2023-05-23T06:30:18;17.30;99.90
9193;DHT22;4631;49.296;10.560;2023-05-23T06:32:46;17.30;99.90
9193;DHT22;4631;49.296;10.560;2023-05-23T06:35:13;17.40;99.90
9193;DHT22;4631;49.296;10.560;2023-05-23T06:37:41;17.40;99.90
9193;DHT22;4631;49.296;10.560;2023-05-23T06:40:10;17.30;99.90
9193;DHT22;4631;49.296;10.560;2023-05-23T06:42:36;17.40;99.90
9193;DHT22;4631;49.296;10.560;2023-05-23T06:45:03;17.30;99.90
9193;DHT22;4631;49.296;10.560;2023-05-23T06:47:30;17.40;99.90
9193;DHT22;4631;49.296;10.560;2023-05-23T06:49:57;17.40;99.90
9193;DHT22;4631;49.296;10.560;2023-05-23T06:52:23;17.40;99.90
9193;DHT22;4631;49.296;10.560;2023-05-23T06:54:51;17.40;99.90
9193;DHT22;4631;49.296;10.560;2023-05-23T06:57:18;17.40;99.90
9193;DHT22;4631;49.296;10.560;2023-05-23T06:59:44;17.40;99.90
9193;DHT22;4631;49.296;10.560;2023-05-23T07:02:11;17.40;99.90
9193;DHT22;4631;49.296;10.560;2023-05-23T07:04:37;17.40;99.90
9193;DHT22;4631;49.296;10.560;2023-05-23T07:07:04;17.40;99.90
9193;DHT22;4631;49.296;10.560;2023-05-23T07:09:31;17.50;99.90
9193;DHT22;4631;49.296;10.560;2023-05-23T07:12:00;17.40;99.90
9193;DHT22;4631;49.296;10.560;2023-05-23T07:14:27;17.40;99.90
9193;DHT22;4631;49.296;10.560;2023-05-23T07:16:53;17.50;99.90
9193;DHT22;4631;49.296;10.560;2023-05-23T07:19:20;17.50;99.90
9193;DHT22;4631;49.296;10.560;2023-05-23T07:21:46;17.50;99.90
9193;DHT22;4631;49.296;10.560;2023-05-23T07:24:13;17.40;99.90
9193;DHT22;4631;49.296;10.560;2023-05-23T07:26:40;17.40;99.90
9193;DHT22;4631;49.296;10.560;2023-05-23T07:29:08;17.30;99.90
9193;DHT22;4631;49.296;10.560;2023-05-23T07:31:34;17.30;99.90
9193;DHT22;4631;49.296;10.560;2023-05-23T07:34:01;17.30;99.90
9193;DHT22;4631;49.296;10.560;2023-05-23T07:36:28;17.20;99.90
9193;DHT22;4631;49.296;10.560;2023-05-23T07:38:58;17.20;99.90
9193;DHT22;4631;49.296;10.560;2023-05-23T07:41:25;17.10;99.90
9193;DHT22;4631;49.296;10.560;2023-05-23T07:43:52;17.10;99.90
9193;DHT22;4631;49.296;10.560;2023-05-23T07:46:20;17.20;99.90
9193;DHT22;4631;49.296;10.560;2023-05-23T07:48:48;17.20;99.90
9193;DHT22;4631;49.296;10.560;2023-05-23T07:51:14;17.30;99.90
9193;DHT22;4631;49.296;10.560;2023-05-23T07:53:45;17.50;99.90
9193;DHT22;4631;49.296;10.560;2023-05-23T07:56:12;17.60;99.90
9193;DHT22;4631;49.296;10.560;2023-05-23T07:58:39;17.70;99.90
9193;DHT22;4631;49.296;10.560;2023-05-23T08:01:05;17.70;99.90
9193;DHT22;4631;49.296;10.560;2023-05-23T08:03:33;17.90;99.90
9193;DHT22;4631;49.296;10.560;2023-05-23T08:06:00;17.90;99.90
9193;DHT22;4631;49.296;10.560;2023-05-23T08:08:27;17.90;99.90
9193;DHT22;4631;49.296;10.560;2023-05-23T08:10:54;18.00;99.90
9193;DHT22;4631;49.296;10.560;2023-05-23T08:13:20;18.00;99.90
9193;DHT22;4631;49.296;10.560;2023-05-23T08:15:47;18.00;99.90
9193;DHT22;4631;49.296;10.560;2023-05-23T08:18:13;18.10;99.90
9193;DHT22;4631;49.296;10.560;2023-05-23T08:20:42;18.10;99.90
9193;DHT22;4631;49.296;10.560;2023-05-23T08:23:09;18.20;99.90
9193;DHT22;4631;49.296;10.560;2023-05-23T08:25:38;18.20;99.90
9193;DHT22;4631;49.296;10.560;2023-05-23T08:28:04;18.20;99.90
9193;DHT22;4631;49.296;10.560;2023-05-23T08:30:31;18.20;99.90
9193;DHT22;4631;49.296;10.560;2023-05-23T08:32:58;18.20;99.90
9193;DHT22;4631;49.296;10.560;2023-05-23T08:35:28;18.10;99.90
9193;DHT22;4631;49.296;10.560;2023-05-23T08:38:00;18.00;99.90
9193;DHT22;4631;49.296;10.560;2023-05-23T08:40:27;17.90;99.90
9193;DHT22;4631;49.296;10.560;2023-05-23T08:42:55;18.00;99.90
9193;DHT22;4631;49.296;10.560;2023-05-23T08:45:22;18.00;99.90
9193;DHT22;4631;49.296;10.560;2023-05-23T08:47:50;18.10;99.90
9193;DHT22;4631;49.296;10.560;2023-05-23T08:50:17;18.10;99.90
9193;DHT22;4631;49.296;10.560;2023-05-23T08:52:46;18.10;99.90
9193;DHT22;4631;49.296;10.560;2023-05-23T08:55:14;18.10;99.90
9193;DHT22;4631;49.296;10.560;2023-05-23T08:57:42;18.10;99.90
9193;DHT22;4631;49.296;10.560;2023-05-23T09:00:10;18.00;99.90
9193;DHT22;4631;49.296;10.560;2023-05-23T09:02:39;18.00;99.90
9193;DHT22;4631;49.296;10.560;2023-05-23T09:05:06;18.00;99.90
9193;DHT22;4631;49.296;10.560;2023-05-23T09:07:34;17.90;99.90
9193;DHT22;4631;49.296;10.560;2023-05-23T09:10:01;17.90;99.90
9193;DHT22;4631;49.296;10.560;2023-05-23T09:12:29;17.80;99.90
9193;DHT22;4631;49.296;10.560;2023-05-23T09:14:57;17.90;99.90
9193;DHT22;4631;49.296;10.560;2023-05-23T09:17:24;17.80;99.90
9193;DHT22;4631;49.296;10.560;2023-05-23T09:19:51;17.70;99.90
9193;DHT22;4631;49.296;10.560;2023-05-23T09:22:21;17.70;99.90
9193;DHT22;4631;49.296;10.560;2023-05-23T09:24:49;17.60;99.90
9193;DHT22;4631;49.296;10.560;2023-05-23T09:27:15;17.50;99.90
9193;DHT22;4631;49.296;10.560;2023-05-23T09:29:43;17.30;99.90
9193;DHT22;4631;49.296;10.560;2023-05-23T09:32:11;17.20;99.90
9193;DHT22;4631;49.296;10.560;2023-05-23T09:34:39;17.20;99.90
9193;DHT22;4631;49.296;10.560;2023-05-23T09:37:06;17.10;99.90
9193;DHT22;4631;49.296;10.560;2023-05-23T09:39:35;17.10;99.90
9193;DHT22;4631;49.296;10.560;2023-05-23T09:42:02;17.10;99.90
9193;DHT22;4631;49.296;10.560;2023-05-23T09:44:28;17.20;99.90
9193;DHT22;4631;49.296;10.560;2023-05-23T09:46:56;17.20;99.90
9193;DHT22;4631;49.296;10.560;2023-05-23T09:49:25;17.20;99.90
9193;DHT22;4631;49.296;10.560;2023-05-23T09:51:58;17.20;99.90
9193;DHT22;4631;49.296;10.560;2023-05-23T09:54:25;17.40;99.90
9193;DHT22;4631;49.296;10.560;2023-05-23T09:56:52;17.50;99.90
9193;DHT22;4631;49.296;10.560;2023-05-23T09:59:20;17.50;99.90
9193;DHT22;4631;49.296;10.560;2023-05-23T10:01:48;17.50;99.90
9193;DHT22;4631;49.296;10.560;2023-05-23T10:04:18;17.50;99.90
9193;DHT22;4631;49.296;10.560;2023-05-23T10:06:48;17.40;99.90
9193;DHT22;4631;49.296;10.560;2023-05-23T10:09:18;17.40;99.90
9193;DHT22;4631;49.296;10.560;2023-05-23T10:14:30;17.30;99.90
9193;DHT22;4631;49.296;10.560;2023-05-23T10:17:00;17.30;99.90
9193;DHT22;4631;49.296;10.560;2023-05-23T10:19:33;17.30;99.90
9193;DHT22;4631;49.296;10.560;2023-05-23T10:22:02;17.30;99.90
9193;DHT22;4631;49.296;10.560;2023-05-23T10:24:30;17.40;99.90
9193;DHT22;4631;49.296;10.560;2023-05-23T10:26:56;17.50;99.90
9193;DHT22;4631;49.296;10.560;2023-05-23T10:29:23;17.50;99.90
9193;DHT22;4631;49.296;10.560;2023-05-23T10:31:50;17.50;99.90
9193;DHT22;4631;49.296;10.560;2023-05-23T10:34:20;17.60;99.90
9193;DHT22;4631;49.296;10.560;2023-05-23T10:36:52;17.80;99.90
9193;DHT22;4631;49.296;10.560;2023-05-23T10:39:21;17.90;99.90
9193;DHT22;4631;49.296;10.560;2023-05-23T10:41:51;18.00;99.90
9193;DHT22;4631;49.296;10.560;2023-05-23T10:44:22;18.00;99.90
9193;DHT22;4631;49.296;10.560;2023-05-23T10:46:51;18.10;99.90
9193;DHT22;4631;49.296;10.560;2023-05-23T10:49:18;18.20;99.90
9193;DHT22;4631;49.296;10.560;2023-05-23T10:51:46;18.20;99.90
9193;DHT22;4631;49.296;10.560;2023-05-23T10:54:16;18.30;99.90
9193;DHT22;4631;49.296;10.560;2023-05-23T10:56:43;18.30;99.90
9193;DHT22;4631;49.296;10.560;2023-05-23T10:59:13;18.40;99.90
9193;DHT22;4631;49.296;10.560;2023-05-23T11:01:44;18.50;99.90
9193;DHT22;4631;49.296;10.560;2023-05-23T11:04:11;18.50;99.90
9193;DHT22;4631;49.296;10.560;2023-05-23T11:06:39;18.60;99.90
9193;DHT22;4631;49.296;10.560;2023-05-23T11:09:09;18.60;99.90
9193;DHT22;4631;49.296;10.560;2023-05-23T11:11:52;18.60;99.90
9193;DHT22;4631;49.296;10.560;2023-05-23T11:14:19;18.70;99.90
9193;DHT22;4631;49.296;10.560;2023-05-23T11:16:46;18.90;99.90
9193;DHT22;4631;49.296;10.560;2023-05-23T11:19:19;19.10;99.90
9193;DHT22;4631;49.296;10.560;2023-05-23T11:21:48;19.10;99.90
9193;DHT22;4631;49.296;10.560;2023-05-23T11:24:16;19.10;99.90
9193;DHT22;4631;49.296;10.560;2023-05-23T11:26:50;19.00;99.90
9193;DHT22;4631;49.296;10.560;2023-05-23T11:29:18;19.00;99.90
9193;DHT22;4631;49.296;10.560;2023-05-23T11:31:45;19.00;99.90
9193;DHT22;4631;49.296;10.560;2023-05-23T11:34:12;19.00;99.90
9193;DHT22;4631;49.296;10.560;2023-05-23T11:36:39;19.00;99.90
9193;DHT22;4631;49.296;10.560;2023-05-23T11:39:05;19.10;99.90
9193;DHT22;4631;49.296;10.560;2023-05-23T11:41:34;19.20;99.90
9193;DHT22;4631;49.296;10.560;2023-05-23T11:44:00;19.20;99.90
9193;DHT22;4631;49.296;10.560;2023-05-23T11:46:28;19.40;99.90
9193;DHT22;4631;49.296;10.560;2023-05-23T11:48:55;19.50;99.90
9193;DHT22;4631;49.296;10.560;2023-05-23T11:51:21;19.70;99.90
9193;DHT22;4631;49.296;10.560;2023-05-23T11:53:48;19.80;99.90
9193;DHT22;4631;49.296;10.560;2023-05-23T11:56:15;19.80;99.90
9193;DHT22;4631;49.296;10.560;2023-05-23T11:58:42;19.70;99.90
9193;DHT22;4631;49.296;10.560;2023-05-23T12:01:10;19.50;99.90
9193;DHT22;4631;49.296;10.560;2023-05-23T12:03:44;19.40;99.90
9193;DHT22;4631;49.296;10.560;2023-05-23T12:06:13;19.40;99.90
9193;DHT22;4631;49.296;10.560;2023-05-23T12:08:40;19.30;99.90
9193;DHT22;4631;49.296;10.560;2023-05-23T12:11:06;19.30;99.90
9193;DHT22;4631;49.296;10.560;2023-05-23T12:13:33;19.30;99.90
9193;DHT22;4631;49.296;10.560;2023-05-23T12:16:00;19.40;99.90
9193;DHT22;4631;49.296;10.560;2023-05-23T12:18:27;19.30;99.90
9193;DHT22;4631;49.296;10.560;2023-05-23T12:20:58;19.10;99.90
9193;DHT22;4631;49.296;10.560;2023-05-23T12:23:25;19.00;99.90
9193;DHT22;4631;49.296;10.560;2023-05-23T12:25:52;18.90;99.90
9193;DHT22;4631;49.296;10.560;2023-05-23T12:28:19;18.90;99.90
9193;DHT22;4631;49.296;10.560;2023-05-23T12:30:46;18.80;99.90
9193;DHT22;4631;49.296;10.560;2023-05-23T12:33:13;18.90;99.90
9193;DHT22;4631;49.296;10.560;2023-05-23T12:35:43;19.00;99.90
9193;DHT22;4631;49.296;10.560;2023-05-23T12:38:14;19.10;99.90
9193;DHT22;4631;49.296;10.560;2023-05-23T12:40:43;19.20;99.90
9193;DHT22;4631;49.296;10.560;2023-05-23T12:43:09;19.10;99.90
9193;DHT22;4631;49.296;10.560;2023-05-23T12:45:37;19.00;99.90
9193;DHT22;4631;49.296;10.560;2023-05-23T12:48:03;18.90;99.90
9193;DHT22;4631;49.296;10.560;2023-05-23T12:50:31;18.80;99.90
9193;DHT22;4631;49.296;10.560;2023-05-23T12:52:58;18.60;99.90
9193;DHT22;4631;49.296;10.560;2023-05-23T12:55:26;18.40;99.90
9193;DHT22;4631;49.296;10.560;2023-05-23T12:57:53;18.30;99.90
9193;DHT22;4631;49.296;10.560;2023-05-23T13:00:20;18.30;99.90
9193;DHT22;4631;49.296;10.560;2023-05-23T13:02:47;18.30;99.90
9193;DHT22;4631;49.296;10.560;2023-05-23T13:05:14;18.20;99.90
9193;DHT22;4631;49.296;10.560;2023-05-23T13:07:41;18.20;99.90
9193;DHT22;4631;49.296;10.560;2023-05-23T13:10:08;18.20;99.90
9193;DHT22;4631;49.296;10.560;2023-05-23T13:12:36;18.20;99.90
9193;DHT22;4631;49.296;10.560;2023-05-23T13:15:04;18.30;99.90
9193;DHT22;4631;49.296;10.560;2023-05-23T13:17:30;18.30;99.90
9193;DHT22;4631;49.296;10.560;2023-05-23T13:19:57;18.20;99.90
9193;DHT22;4631;49.296;10.560;2023-05-23T13:22:24;18.30;99.90
9193;DHT22;4631;49.296;10.560;2023-05-23T13:24:50;18.20;99.90
9193;DHT22;4631;49.296;10.560;2023-05-23T13:27:17;18.30;99.90
9193;DHT22;4631;49.296;10.560;2023-05-23T13:29:45;18.40;99.90
9193;DHT22;4631;49.296;10.560;2023-05-23T13:32:12;18.30;99.90
9193;DHT22;4631;49.296;10.560;2023-05-23T13:34:38;18.30;99.90
9193;DHT22;4631;49.296;10.560;2023-05-23T13:37:05;18.30;99.90
9193;DHT22;4631;49.296;10.560;2023-05-23T13:39:31;18.40;99.90
9193;DHT22;4631;49.296;10.560;2023-05-23T13:41:58;18.40;99.90
9193;DHT22;4631;49.296;10.560;2023-05-23T13:44:25;18.60;99.90
9193;DHT22;4631;49.296;10.560;2023-05-23T13:46:53;18.90;99.90
9193;DHT22;4631;49.296;10.560;2023-05-23T13:49:19;19.20;99.90
9193;DHT22;4631;49.296;10.560;2023-05-23T13:51:46;19.30;99.90
9193;DHT22;4631;49.296;10.560;2023-05-23T13:54:14;19.40;99.90
9193;DHT22;4631;49.296;10.560;2023-05-23T13:56:41;19.50;99.90
9193;DHT22;4631;49.296;10.560;2023-05-23T13:59:10;19.50;99.90
9193;DHT22;4631;49.296;10.560;2023-05-23T14:01:36;19.60;99.90
9193;DHT22;4631;49.296;10.560;2023-05-23T14:04:04;19.60;99.90
9193;DHT22;4631;49.296;10.560;2023-05-23T14:06:32;19.40;99.90
9193;DHT22;4631;49.296;10.560;2023-05-23T14:08:58;19.40;99.90
9193;DHT22;4631;49.296;10.560;2023-05-23T14:11:25;19.30;99.90
9193;DHT22;4631;49.296;10.560;2023-05-23T14:13:52;19.20;99.90
9193;DHT22;4631;49.296;10.560;2023-05-23T14:16:19;19.10;99.90
9193;DHT22;4631;49.296;10.560;2023-05-23T14:18:47;19.00;99.90
9193;DHT22;4631;49.296;10.560;2023-05-23T14:21:15;19.00;99.90
9193;DHT22;4631;49.296;10.560;2023-05-23T14:23:42;18.90;99.90
9193;DHT22;4631;49.296;10.560;2023-05-23T14:26:14;18.90;99.90
9193;DHT22;4631;49.296;10.560;2023-05-23T14:28:42;18.80;99.90
9193;DHT22;4631;49.296;10.560;2023-05-23T14:31:09;18.70;99.90
9193;DHT22;4631;49.296;10.560;2023-05-23T14:33:36;18.70;99.90
9193;DHT22;4631;49.296;10.560;2023-05-23T14:36:02;18.80;99.90
9193;DHT22;4631;49.296;10.560;2023-05-23T14:38:31;18.70;99.90
9193;DHT22;4631;49.296;10.560;2023-05-23T14:40:57;18.80;99.90
9193;DHT22;4631;49.296;10.560;2023-05-23T14:43:24;19.00;99.90
9193;DHT22;4631;49.296;10.560;2023-05-23T14:45:51;19.30;99.90
9193;DHT22;4631;49.296;10.560;2023-05-23T14:48:17;19.60;99.90
9193;DHT22;4631;49.296;10.560;2023-05-23T14:50:44;19.70;99.90
9193;DHT22;4631;49.296;10.560;2023-05-23T14:53:11;19.70;99.90
9193;DHT22;4631;49.296;10.560;2023-05-23T14:55:39;19.60;99.90
9193;DHT22;4631;49.296;10.560;2023-05-23T14:58:05;19.70;99.90
9193;DHT22;4631;49.296;10.560;2023-05-23T15:00:32;19.70;99.90
9193;DHT22;4631;49.296;10.560;2023-05-23T15:03:00;19.60;99.90
9193;DHT22;4631;49.296;10.560;2023-05-23T15:05:27;19.50;99.90
9193;DHT22;4631;49.296;10.560;2023-05-23T15:07:54;19.40;99.90
9193;DHT22;4631;49.296;10.560;2023-05-23T15:10:20;19.40;99.90
9193;DHT22;4631;49.296;10.560;2023-05-23T15:12:48;19.50;99.90
9193;DHT22;4631;49.296;10.560;2023-05-23T15:15:15;19.50;99.90
9193;DHT22;4631;49.296;10.560;2023-05-23T15:17:47;19.40;99.90
9193;DHT22;4631;49.296;10.560;2023-05-23T15:20:13;19.30;99.90
9193;DHT22;4631;49.296;10.560;2023-05-23T15:22:40;19.30;99.90
9193;DHT22;4631;49.296;10.560;2023-05-23T15:25:07;19.30;99.90
9193;DHT22;4631;49.296;10.560;2023-05-23T15:27:34;19.20;99.90
9193;DHT22;4631;49.296;10.560;2023-05-23T15:30:02;19.10;99.90
9193;DHT22;4631;49.296;10.560;2023-05-23T15:32:32;19.10;99.90
9193;DHT22;4631;49.296;10.560;2023-05-23T15:34:59;19.30;99.90
9193;DHT22;4631;49.296;10.560;2023-05-23T15:37:26;19.40;99.90
9193;DHT22;4631;49.296;10.560;2023-05-23T15:39:52;19.30;99.90
9193;DHT22;4631;49.296;10.560;2023-05-23T15:42:19;19.40;99.90
9193;DHT22;4631;49.296;10.560;2023-05-23T15:44:46;19.40;99.90
9193;DHT22;4631;49.296;10.560;2023-05-23T15:47:14;19.40;99.90
9193;DHT22;4631;49.296;10.560;2023-05-23T15:49:40;19.30;99.90